Time;durP1;ratioP1;P1;durP2;ratioP2;P2;SDS_P1;SDS_P2;PMS_P1;PMS_P2;Temp;Humidity;BMP_temperature;BMP_pressure;BME280_temperature;BME280_humidity;BME280_pressure;Samples;Min_cycle;Max_cycle;Signal;HPM_P1;HPM_P2
2022/04/21 00:00:27;;;;;;;;;;;;;;;12.09;86.61;97380.06;5074999;28;19929;-70
2022/04/21 00:02:53;;;;;;;;;;;;;;;12.40;84.10;97368.72;5077822;28;19984;-70
2022/04/21 00:05:20;;;;;;;;;;;;;;;12.28;84.88;97372.88;5079537;28;19957;-70
2022/04/21 00:07:48;;;;;;;;;;;;;;;12.12;86.36;97380.28;5079058;28;19924;-70
2022/04/21 00:10:15;;;;;;;;;;;;;;;12.45;84.13;97378.53;5076520;28;19968;-71
2022/04/21 00:12:41;;;;;;;;;;;;;;;12.53;83.74;97374.44;5076120;28;20373;-71
2022/04/21 00:15:11;;;;;;;;;;;;;;;12.21;86.15;97377.78;5067986;28;19995;-72
2022/04/21 00:17:37;;;;;;;;;;;;;;;12.10;87.83;97377.09;5074955;28;19928;-71
2022/04/21 00:20:04;;;;;;;;;;;;;;;11.73;90.35;97367.06;5078963;28;19974;-71
2022/04/21 00:25:15;;;;;;;;;;;;;;;11.41;94.06;97369.50;5067323;28;19924;-71
2022/04/21 00:27:42;;;;;;;;;;;;;;;12.30;86.73;97365.34;5075673;28;19935;-71
2022/04/21 00:30:11;;;;;;;;;;;;;;;12.61;83.99;97358.50;5067956;28;19925;-71
2022/04/21 00:32:38;;;;;;;;;;;;;;;12.76;82.16;97360.16;5075920;28;20352;-72
2022/04/21 00:35:06;;;;;;;;;;;;;;;12.64;83.07;97354.44;5078737;28;19971;-71
2022/04/21 00:37:32;;;;;;;;;;;;;;;12.69;82.83;97355.16;5079495;28;19979;-71
2022/04/21 00:39:59;;;;;;;;;;;;;;;12.41;85.11;97350.72;5076883;28;20264;-71
2022/04/21 00:42:25;;;;;;;;;;;;;;;11.96;88.55;97357.44;5075564;28;19925;-71
2022/04/21 00:44:52;;;;;;;;;;;;;;;12.57;84.00;97351.31;5075329;28;19925;-71
2022/04/21 00:47:20;;;;;;;;;;;;;;;12.69;83.15;97351.72;5079136;28;19928;-72
2022/04/21 00:49:47;;;;;;;;;;;;;;;12.58;84.22;97356.41;5077412;28;19920;-76
2022/04/21 00:52:15;;;;;;;;;;;;;;;12.76;82.89;97347.56;5074456;28;19956;-75
2022/04/21 00:54:41;;;;;;;;;;;;;;;12.64;83.95;97352.56;5076191;28;19924;-73
2022/04/21 00:57:08;;;;;;;;;;;;;;;12.56;84.74;97347.88;5067485;28;19925;-73
2022/04/21 00:59:34;;;;;;;;;;;;;;;12.20;88.41;97338.69;5075563;28;19932;-71
2022/04/21 01:04:48;;;;;;;;;;;;;;;11.86;91.45;97347.66;5076780;28;19992;-71
2022/04/21 01:07:15;;;;;;;;;;;;;;;11.96;91.73;97343.28;5073707;28;19940;-70
2022/04/21 01:09:41;;;;;;;;;;;;;;;11.37;96.48;97349.72;5074709;28;19928;-71
2022/04/21 01:12:09;;;;;;;;;;;;;;;10.87;100.00;97342.13;5067014;28;19929;-71
2022/04/21 01:14:37;;;;;;;;;;;;;;;10.91;100.00;97337.81;5074884;28;19921;-70
2022/04/21 01:17:04;;;;;;;;;;;;;;;10.86;100.00;97345.88;5077772;28;19947;-71
2022/04/21 01:19:30;;;;;;;;;;;;;;;10.96;100.00;97335.91;5078607;28;19998;-71
2022/04/21 01:21:58;;;;;;;;;;;;;;;10.84;100.00;97346.94;5076529;28;19925;-71
2022/04/21 01:24:24;;;;;;;;;;;;;;;10.46;100.00;97347.72;5075111;28;19935;-71
2022/04/21 01:26:51;;;;;;;;;;;;;;;10.48;100.00;97344.78;5075805;28;19925;-71
2022/04/21 01:29:17;;;;;;;;;;;;;;;10.76;100.00;97338.72;5078129;28;19937;-71
2022/04/21 01:31:43;;;;;;;;;;;;;;;11.32;99.47;97331.06;5077903;28;19920;-71
2022/04/21 01:34:10;;;;;;;;;;;;;;;11.47;96.75;97335.47;5074527;28;19925;-71
2022/04/21 01:41:08;;;;;;;;;;;;;;;11.49;97.37;97339.44;5073807;28;19996;-71
2022/04/21 01:42:12;;;;;;;;;;;;;;;11.75;94.39;97343.50;5064887;28;20085;-72
2022/04/21 01:44:39;;;;;;;;;;;;;;;11.62;95.33;97336.13;5074284;28;20015;-71
2022/04/21 01:47:06;;;;;;;;;;;;;;;12.00;94.08;97330.94;5077725;28;20019;-72
2022/04/21 01:49:32;;;;;;;;;;;;;;;11.98;92.72;97333.06;5077719;28;19924;-71
2022/04/21 01:51:59;;;;;;;;;;;;;;;11.37;98.01;97333.69;5074008;28;19971;-71
2022/04/21 01:54:26;;;;;;;;;;;;;;;11.64;95.52;97322.44;5074293;28;19936;-71
2022/04/21 01:56:53;;;;;;;;;;;;;;;11.37;98.71;97315.78;5075348;28;20007;-71
2022/04/21 01:59:19;;;;;;;;;;;;;;;11.37;99.33;97313.09;5078266;28;20004;-70
2022/04/21 02:01:45;;;;;;;;;;;;;;;11.52;97.85;97317.50;5077275;28;19930;-70
2022/04/21 02:04:12;;;;;;;;;;;;;;;11.16;100.00;97317.06;5074432;28;19992;-70
2022/04/21 02:06:38;;;;;;;;;;;;;;;10.97;100.00;97318.81;5074328;28;19936;-71
2022/04/21 02:09:04;;;;;;;;;;;;;;;10.56;100.00;97330.84;5076532;28;19924;-71
2022/04/21 02:11:33;;;;;;;;;;;;;;;10.90;100.00;97325.53;5078145;28;19959;-70
2022/04/21 02:13:59;;;;;;;;;;;;;;;10.62;100.00;97321.72;5076274;28;19979;-71
2022/04/21 02:16:26;;;;;;;;;;;;;;;10.70;100.00;97316.63;5075610;28;20258;-71
2022/04/21 02:18:52;;;;;;;;;;;;;;;9.95;100.00;97328.44;5075493;28;19929;-71
2022/04/21 02:21:18;;;;;;;;;;;;;;;9.63;100.00;97328.81;5077892;28;20022;-71
2022/04/21 02:23:45;;;;;;;;;;;;;;;9.64;100.00;97321.63;5077181;28;19924;-71
2022/04/21 02:26:11;;;;;;;;;;;;;;;9.72;100.00;97321.84;5073928;28;19920;-71
2022/04/21 02:28:39;;;;;;;;;;;;;;;9.83;100.00;97327.16;5073528;28;20008;-71
2022/04/21 02:31:06;;;;;;;;;;;;;;;9.56;100.00;97324.84;5077463;28;19979;-71
2022/04/21 02:33:32;;;;;;;;;;;;;;;9.64;100.00;97324.28;5076271;28;20003;-71
2022/04/21 02:35:58;;;;;;;;;;;;;;;10.19;100.00;97315.31;5075166;28;19935;-71
2022/04/21 02:38:25;;;;;;;;;;;;;;;10.48;100.00;97318.88;5073601;28;19947;-70
2022/04/21 02:40:51;;;;;;;;;;;;;;;10.77;100.00;97301.06;5074749;28;19932;-71
2022/04/21 02:43:17;;;;;;;;;;;;;;;10.67;100.00;97305.69;5076898;28;19934;-70
2022/04/21 02:45:46;;;;;;;;;;;;;;;10.45;100.00;97310.63;5058006;28;21975;-70
2022/04/21 02:48:13;;;;;;;;;;;;;;;10.45;100.00;97300.75;5072858;28;20493;-70
2022/04/21 02:50:40;;;;;;;;;;;;;;;10.32;100.00;97306.69;5074128;28;19992;-70
2022/04/21 02:53:07;;;;;;;;;;;;;;;11.07;100.00;97299.22;5079403;28;20012;-70
2022/04/21 02:58:20;;;;;;;;;;;;;;;10.92;100.00;97304.69;5067899;28;19925;-70
2022/04/21 03:00:49;;;;;;;;;;;;;;;10.03;100.00;97306.53;5074926;28;20737;-70
2022/04/21 03:03:15;;;;;;;;;;;;;;;10.45;100.00;97303.44;5077491;28;19959;-70
2022/04/21 03:05:42;;;;;;;;;;;;;;;10.13;100.00;97306.53;5077244;28;19991;-70
2022/04/21 03:08:08;;;;;;;;;;;;;;;10.23;100.00;97305.69;5065896;28;19935;-70
2022/04/21 03:10:34;;;;;;;;;;;;;;;10.35;100.00;97298.13;5072573;28;19947;-70
2022/04/21 03:13:01;;;;;;;;;;;;;;;10.80;100.00;97289.00;5076337;28;19921;-70
2022/04/21 03:15:27;;;;;;;;;;;;;;;11.08;100.00;97290.91;5077342;28;19928;-70
2022/04/21 03:17:55;;;;;;;;;;;;;;;10.28;100.00;97293.09;5074625;28;19960;-70
2022/04/21 03:25:49;;;;;;;;;;;;;;;10.01;100.00;97294.56;5076172;28;19936;-70
2022/04/21 03:28:16;;;;;;;;;;;;;;;9.65;100.00;97294.72;5073912;28;19925;-70
2022/04/21 03:30:42;;;;;;;;;;;;;;;10.03;100.00;97290.53;5073838;28;19992;-70
2022/04/21 03:33:10;;;;;;;;;;;;;;;10.08;100.00;97289.72;5064594;28;19992;-70
2022/04/21 03:35:36;;;;;;;;;;;;;;;9.66;100.00;97285.63;5074020;28;19925;-71
2022/04/21 03:38:03;;;;;;;;;;;;;;;9.82;100.00;97286.34;5075271;28;19939;-70
2022/04/21 03:40:30;;;;;;;;;;;;;;;10.02;100.00;97288.16;5077334;28;19924;-70
2022/04/21 03:42:56;;;;;;;;;;;;;;;10.12;100.00;97285.44;5067647;28;20722;-70
2022/04/21 03:45:22;;;;;;;;;;;;;;;10.61;100.00;97280.91;5077219;28;20038;-70
2022/04/21 03:47:49;;;;;;;;;;;;;;;10.53;100.00;97281.47;5075908;28;19920;-70
2022/04/21 03:50:16;;;;;;;;;;;;;;;9.98;100.00;97284.44;5073666;28;20357;-70
2022/04/21 03:52:43;;;;;;;;;;;;;;;10.40;100.00;97274.06;5073510;28;19996;-70
2022/04/21 03:55:11;;;;;;;;;;;;;;;9.97;100.00;97285.50;5077017;28;19927;-70
2022/04/21 03:57:38;;;;;;;;;;;;;;;10.47;100.00;97279.09;5077170;28;19920;-70
2022/04/21 04:00:05;;;;;;;;;;;;;;;10.32;100.00;97277.34;5077545;28;19997;-70
2022/04/21 04:02:31;;;;;;;;;;;;;;;9.86;100.00;97290.09;5076167;28;20027;-70
2022/04/21 04:05:00;;;;;;;;;;;;;;;10.09;100.00;97277.97;5079338;28;19993;-70
2022/04/21 04:12:55;;;;;;;;;;;;;;;9.80;100.00;97285.03;5078266;28;19924;-71
2022/04/21 04:15:22;;;;;;;;;;;;;;;9.30;100.00;97281.47;5079295;28;19930;-71
2022/04/21 04:17:48;;;;;;;;;;;;;;;9.97;100.00;97286.28;5079653;28;19924;-71
2022/04/21 04:20:15;;;;;;;;;;;;;;;9.97;100.00;97277.50;5077122;28;20005;-71
2022/04/21 04:22:43;;;;;;;;;;;;;;;10.24;100.00;97280.59;5076951;28;19928;-70
2022/04/21 04:25:10;;;;;;;;;;;;;;;9.62;100.00;97287.22;5069047;28;19931;-70
2022/04/21 04:27:36;;;;;;;;;;;;;;;9.91;100.00;97283.91;5076818;28;19952;-70
2022/04/21 04:30:03;;;;;;;;;;;;;;;10.57;100.00;97261.16;5078322;28;19934;-71
2022/04/21 04:32:30;;;;;;;;;;;;;;;10.48;100.00;97262.81;5080113;28;19963;-71
2022/04/21 04:34:56;;;;;;;;;;;;;;;10.41;100.00;97265.00;5078163;28;19924;-71
2022/04/21 04:37:22;;;;;;;;;;;;;;;10.09;100.00;97272.63;5076792;28;20000;-70
2022/04/21 04:39:50;;;;;;;;;;;;;;;9.93;100.00;97263.13;5077159;28;19925;-70
2022/04/21 04:42:17;;;;;;;;;;;;;;;9.98;100.00;97276.44;5074273;28;19929;-70
2022/04/21 04:44:43;;;;;;;;;;;;;;;10.46;100.00;97267.63;5076514;28;19921;-71
2022/04/21 04:47:08;;;;;;;;;;;;;;;10.53;100.00;97270.00;5079801;28;19920;-70
2022/04/21 04:49:35;;;;;;;;;;;;;;;10.98;100.00;97263.50;5080163;28;19931;-70
2022/04/21 04:52:01;;;;;;;;;;;;;;;11.12;100.00;97269.78;5077016;28;19932;-70
2022/04/21 04:54:29;;;;;;;;;;;;;;;11.18;100.00;97269.44;5076630;28;19925;-70
2022/04/21 04:56:57;;;;;;;;;;;;;;;11.02;100.00;97267.19;5078062;28;19925;-71
2022/04/21 04:59:23;;;;;;;;;;;;;;;11.18;100.00;97274.00;5079612;28;19931;-70
2022/04/21 05:01:49;;;;;;;;;;;;;;;11.10;100.00;97266.59;5078152;28;19932;-71
2022/04/21 05:04:17;;;;;;;;;;;;;;;11.22;100.00;97270.50;5075844;28;19924;-71
2022/04/21 05:06:44;;;;;;;;;;;;;;;11.24;100.00;97270.19;5075849;28;20494;-70
2022/04/21 05:09:13;;;;;;;;;;;;;;;11.37;100.00;97266.84;5079443;28;19935;-71
2022/04/21 05:11:39;;;;;;;;;;;;;;;11.04;100.00;97267.72;5078592;28;19946;-70
2022/04/21 05:14:08;;;;;;;;;;;;;;;11.09;100.00;97265.00;5076007;28;20723;-73
2022/04/21 05:16:36;;;;;;;;;;;;;;;10.92;100.00;97261.97;5075648;28;19921;-71
2022/04/21 05:19:02;;;;;;;;;;;;;;;10.37;100.00;97263.94;5076963;28;19931;-71
2022/04/21 05:21:30;;;;;;;;;;;;;;;10.24;100.00;97265.38;5078945;28;19925;-71
2022/04/21 05:23:57;;;;;;;;;;;;;;;10.04;100.00;97272.66;5077097;28;19976;-71
2022/04/21 05:26:25;;;;;;;;;;;;;;;10.69;100.00;97266.13;5075263;28;19921;-71
2022/04/21 05:28:52;;;;;;;;;;;;;;;11.06;100.00;97269.03;5074997;28;19936;-70
2022/04/21 05:31:19;;;;;;;;;;;;;;;11.05;100.00;97258.63;5079080;28;19956;-71
2022/04/21 05:33:46;;;;;;;;;;;;;;;10.92;100.00;97269.97;5077031;28;19935;-70
2022/04/21 05:36:12;;;;;;;;;;;;;;;11.21;100.00;97268.88;5075477;28;19956;-71
2022/04/21 05:38:39;;;;;;;;;;;;;;;11.42;99.80;97269.47;5075360;28;19931;-72
2022/04/21 05:41:06;;;;;;;;;;;;;;;11.33;100.00;97268.50;5078379;28;20181;-70
2022/04/21 05:43:39;;;;;;;;;;;;;;;11.44;98.80;97261.97;5078906;28;19992;-70
2022/04/21 05:46:06;;;;;;;;;;;;;;;11.11;100.00;97270.88;5075626;28;19925;-71
2022/04/21 05:48:34;;;;;;;;;;;;;;;11.34;100.00;97270.09;5074982;28;19921;-72
2022/04/21 05:51:01;;;;;;;;;;;;;;;11.72;97.38;97274.53;5077316;28;20063;-72
2022/04/21 05:53:27;;;;;;;;;;;;;;;11.50;100.00;97276.09;5078304;28;19921;-71
2022/04/21 05:55:54;;;;;;;;;;;;;;;11.32;100.00;97272.25;5076877;28;20000;-71
2022/04/21 05:58:22;;;;;;;;;;;;;;;11.51;100.00;97275.00;5074989;28;20028;-71
2022/04/21 06:00:49;;;;;;;;;;;;;;;12.22;95.45;97277.66;5075553;28;20548;-71
2022/04/21 06:03:16;;;;;;;;;;;;;;;11.97;97.35;97270.75;5077203;28;19925;-70
2022/04/21 06:05:43;;;;;;;;;;;;;;;11.77;98.96;97282.50;5078126;28;20104;-70
2022/04/21 06:08:10;;;;;;;;;;;;;;;11.96;96.46;97271.81;5045121;28;19928;-70
2022/04/21 06:10:36;;;;;;;;;;;;;;;11.93;97.98;97272.41;5070153;28;19980;-71
2022/04/21 06:13:03;;;;;;;;;;;;;;;11.88;98.05;97272.47;5076845;28;19980;-70
2022/04/21 06:15:31;;;;;;;;;;;;;;;12.52;94.04;97269.19;5077792;28;19971;-70
2022/04/21 06:17:58;;;;;;;;;;;;;;;13.14;89.55;97275.19;5075806;28;19925;-71
2022/04/21 06:20:24;;;;;;;;;;;;;;;13.25;87.65;97269.34;5074606;28;19948;-71
2022/04/21 06:22:52;;;;;;;;;;;;;;;12.95;91.00;97270.63;5075524;28;19924;-71
2022/04/21 06:25:18;;;;;;;;;;;;;;;13.53;87.55;97273.66;5077967;28;19967;-71
2022/04/21 06:27:45;;;;;;;;;;;;;;;13.25;89.19;97273.91;5077735;28;19924;-70
2022/04/21 06:30:11;;;;;;;;;;;;;;;13.84;85.87;97271.19;5073647;28;19997;-70
2022/04/21 06:33:12;;;;;;;;;;;;;;;13.60;86.67;97269.78;5074580;28;19992;-71
2022/04/21 06:35:38;;;;;;;;;;;;;;;13.98;84.72;97271.19;5082412;28;19921;-71
2022/04/21 06:38:07;;;;;;;;;;;;;;;13.96;84.29;97274.16;5076588;28;19924;-71
2022/04/21 06:40:33;;;;;;;;;;;;;;;14.49;82.51;97268.22;5077779;28;19954;-71
2022/04/21 06:43:02;;;;;;;;;;;;;;;14.94;79.33;97267.16;5069840;28;19935;-71
2022/04/21 06:48:20;;;;;;;;;;;;;;;15.34;76.51;97264.53;5065256;28;20063;-72
2022/04/21 06:50:46;;;;;;;;;;;;;;;14.65;77.18;97261.41;5074696;28;19959;-71
2022/04/21 06:53:14;;;;;;;;;;;;;;;14.29;78.99;97276.69;5077816;28;20748;-71
2022/04/21 06:55:40;;;;;;;;;;;;;;;14.56;81.19;97274.75;5078806;28;19932;-71
2022/04/21 06:58:07;;;;;;;;;;;;;;;14.15;81.13;97274.03;5076147;28;19992;-71
2022/04/21 07:00:33;;;;;;;;;;;;;;;14.72;80.44;97267.16;5075234;28;19983;-71
2022/04/21 07:02:59;;;;;;;;;;;;;;;14.22;78.67;97269.06;5077091;28;19929;-71
2022/04/21 07:05:26;;;;;;;;;;;;;;;13.75;81.83;97283.69;5078037;28;19999;-71
2022/04/21 07:07:53;;;;;;;;;;;;;;;14.34;82.23;97271.25;5075364;28;19924;-71
2022/04/21 07:10:21;;;;;;;;;;;;;;;14.63;80.08;97260.13;5074100;28;19992;-71
2022/04/21 07:12:47;;;;;;;;;;;;;;;15.07;77.80;97270.88;5074558;28;19955;-71
2022/04/21 07:15:14;;;;;;;;;;;;;;;14.65;76.29;97258.69;5077501;28;19967;-71
2022/04/21 07:17:41;;;;;;;;;;;;;;;14.19;76.24;97264.28;5077315;28;19924;-71
2022/04/21 07:20:08;;;;;;;;;;;;;;;14.50;79.57;97261.75;5073088;28;19924;-71
2022/04/21 07:22:34;;;;;;;;;;;;;;;14.40;78.15;97259.28;5073832;28;19951;-71
2022/04/21 07:25:02;;;;;;;;;;;;;;;15.07;75.81;97254.75;5076504;28;20015;-71
2022/04/21 07:27:30;;;;;;;;;;;;;;;14.75;70.54;97258.47;5077754;28;19995;-72
2022/04/21 07:29:57;;;;;;;;;;;;;;;15.30;70.63;97253.59;5075753;28;19935;-71
2022/04/21 07:32:23;;;;;;;;;;;;;;;15.29;69.15;97259.28;5074280;28;19936;-72
2022/04/21 07:34:50;;;;;;;;;;;;;;;14.89;60.60;97253.81;5076637;28;19989;-71
2022/04/21 07:37:16;;;;;;;;;;;;;;;14.68;64.13;97252.72;5080065;28;19935;-71
2022/04/21 07:39:43;;;;;;;;;;;;;;;14.08;59.24;97266.38;5081257;28;20291;-72
2022/04/21 07:42:09;;;;;;;;;;;;;;;14.16;64.60;97261.41;5069736;28;19959;-71
2022/04/21 07:44:37;;;;;;;;;;;;;;;13.31;61.59;97262.00;5077574;28;19931;-71
2022/04/21 07:47:05;;;;;;;;;;;;;;;12.77;62.97;97262.63;5080177;28;19939;-72
2022/04/21 07:49:46;;;;;;;;;;;;;;;12.75;63.83;97265.59;5081171;28;19955;-70
2022/04/21 07:54:57;;;;;;;;;;;;;;;12.88;62.34;97258.69;5078238;28;19935;-71
2022/04/21 07:57:23;;;;;;;;;;;;;;;13.24;62.75;97264.28;5079990;28;19966;-72
2022/04/21 07:59:51;;;;;;;;;;;;;;;12.88;62.44;97264.84;5080074;28;20067;-70
2022/04/21 08:02:17;;;;;;;;;;;;;;;12.73;63.41;97265.09;5077234;28;19947;-72
2022/04/21 08:04:44;;;;;;;;;;;;;;;12.60;65.15;97247.09;5076220;28;20023;-72
2022/04/21 08:07:11;;;;;;;;;;;;;;;12.62;64.64;97249.50;5080679;28;19932;-76
2022/04/21 08:09:37;;;;;;;;;;;;;;;12.69;64.57;97250.69;5080777;28;19924;-71
2022/04/21 08:12:04;;;;;;;;;;;;;;;12.89;65.00;97244.22;5077691;28;19929;-70
2022/04/21 08:14:30;;;;;;;;;;;;;;;13.47;64.57;97253.38;5077325;28;19925;-70
2022/04/21 08:16:58;;;;;;;;;;;;;;;13.54;62.49;97244.94;5078662;28;19932;-72
2022/04/21 08:19:24;;;;;;;;;;;;;;;13.22;62.42;97235.06;5080639;28;19921;-71
2022/04/21 08:21:51;;;;;;;;;;;;;;;13.28;64.96;97241.94;5078753;28;19924;-71
2022/04/21 08:32:41;;;;;;;;;;;;;;;13.70;66.91;97250.81;5076658;28;19936;-71
2022/04/21 08:35:09;;;;;;;;;;;;;;;14.90;68.54;97239.28;5080510;28;19924;-72
2022/04/21 08:37:36;;;;;;;;;;;;;;;14.79;61.55;97232.56;5080824;28;20434;-72
2022/04/21 08:40:02;;;;;;;;;;;;;;;15.38;67.16;97227.84;5077503;28;20617;-72
2022/04/21 08:42:30;;;;;;;;;;;;;;;14.72;60.97;97229.53;5075268;28;19931;-72
2022/04/21 08:44:57;;;;;;;;;;;;;;;15.09;64.24;97231.00;5076964;28;20450;-71
2022/04/21 08:47:27;;;;;;;;;;;;;;;14.20;59.41;97230.16;5078677;28;19928;-70
2022/04/21 08:49:56;;;;;;;;;;;;;;;13.88;64.18;97237.28;5078437;28;19929;-71
2022/04/21 08:52:23;;;;;;;;;;;;;;;14.08;63.45;97231.47;5076624;28;19920;-72
2022/04/21 08:54:50;;;;;;;;;;;;;;;14.03;64.64;97244.22;5076954;28;20368;-73
2022/04/21 08:57:16;;;;;;;;;;;;;;;13.86;63.63;97239.47;5079660;28;19960;-72
2022/04/21 08:59:42;;;;;;;;;;;;;;;13.82;63.68;97229.63;5080011;28;19988;-71
2022/04/21 09:02:09;;;;;;;;;;;;;;;13.81;64.05;97238.78;5068091;28;19972;-72
2022/04/21 09:04:35;;;;;;;;;;;;;;;13.97;64.38;97230.13;5076197;28;19924;-72
2022/04/21 09:07:16;;;;;;;;;;;;;;;13.89;61.23;97233.53;5077544;28;19960;-72
2022/04/21 09:09:59;;;;;;;;;;;;;;;13.79;63.78;97231.03;5079204;28;20011;-72
2022/04/21 09:12:26;;;;;;;;;;;;;;;15.85;64.81;97227.06;5069910;28;20007;-72
2022/04/21 09:14:52;;;;;;;;;;;;;;;15.40;58.48;97233.69;5077096;28;19952;-72
2022/04/21 09:17:18;;;;;;;;;;;;;;;16.61;61.17;97228.31;5079093;28;19920;-72
2022/04/21 09:19:55;;;;;;;;;;;;;;;16.11;56.03;97221.75;5078987;28;20297;-72
2022/04/21 09:22:23;;;;;;;;;;;;;;;15.52;56.90;97223.19;5075811;28;19924;-72
2022/04/21 09:24:51;;;;;;;;;;;;;;;15.36;58.71;97224.66;5076298;28;19948;-72
2022/04/21 09:27:18;;;;;;;;;;;;;;;15.27;57.60;97226.50;5077662;28;19932;-72
2022/04/21 09:29:44;;;;;;;;;;;;;;;15.14;57.40;97223.59;5077441;28;19992;-72
2022/04/21 09:32:10;;;;;;;;;;;;;;;14.84;56.65;97219.00;5075951;28;19984;-72
2022/04/21 09:34:38;;;;;;;;;;;;;;;14.69;57.17;97221.28;5076074;28;19927;-72
2022/04/21 09:37:05;;;;;;;;;;;;;;;14.13;58.43;97221.72;5078630;28;20320;-73
2022/04/21 09:39:38;;;;;;;;;;;;;;;14.14;59.04;97224.13;5078529;28;19991;-72
2022/04/21 09:42:05;;;;;;;;;;;;;;;14.29;60.30;97214.94;5075508;28;19929;-72
2022/04/21 09:47:19;;;;;;;;;;;;;;;14.24;60.13;97228.44;5067929;28;19924;-72
2022/04/21 09:49:46;;;;;;;;;;;;;;;14.13;59.77;97225.22;5073548;28;19986;-72
2022/04/21 09:52:13;;;;;;;;;;;;;;;14.13;60.03;97227.09;5078034;28;19927;-72
2022/04/21 09:54:45;;;;;;;;;;;;;;;14.42;60.22;97219.50;5078116;28;20390;-72
2022/04/21 09:57:12;;;;;;;;;;;;;;;14.27;60.19;97220.59;5066834;28;19933;-72
2022/04/21 09:59:38;;;;;;;;;;;;;;;14.18;59.78;97216.22;5075096;28;19951;-71
2022/04/21 10:02:05;;;;;;;;;;;;;;;14.46;60.83;97207.03;5078120;28;19924;-70
2022/04/21 10:04:32;;;;;;;;;;;;;;;14.31;61.06;97204.66;5078344;28;19925;-70
2022/04/21 10:06:58;;;;;;;;;;;;;;;14.39;61.17;97204.75;5076349;28;20433;-72
2022/04/21 10:09:25;;;;;;;;;;;;;;;14.56;61.10;97201.41;5075210;28;19974;-72
2022/04/21 10:11:53;;;;;;;;;;;;;;;14.47;60.38;97204.06;5075124;28;19943;-72
2022/04/21 10:14:20;;;;;;;;;;;;;;;14.64;60.85;97208.75;5081071;28;19921;-72
2022/04/21 10:16:47;;;;;;;;;;;;;;;14.53;59.60;97208.22;5074176;28;19925;-72
2022/04/21 10:19:16;;;;;;;;;;;;;;;14.65;60.26;97194.22;5078560;28;19927;-72
2022/04/21 10:21:48;;;;;;;;;;;;;;;14.46;60.04;97193.59;5078717;28;19924;-72
2022/04/21 10:24:21;;;;;;;;;;;;;;;14.91;60.77;97187.13;5068285;28;19935;-72
2022/04/21 10:26:47;;;;;;;;;;;;;;;14.77;58.98;97188.28;5074348;28;19921;-72
2022/04/21 10:29:16;;;;;;;;;;;;;;;14.36;59.85;97191.94;5078378;28;19956;-72
2022/04/21 10:31:46;;;;;;;;;;;;;;;14.40;59.66;97189.44;5078007;28;19924;-72
2022/04/21 10:34:27;;;;;;;;;;;;;;;14.78;61.10;97185.28;5066915;28;19931;-71
2022/04/21 10:37:04;;;;;;;;;;;;;;;15.33;59.17;97188.41;5075855;28;19920;-71
2022/04/21 10:39:31;;;;;;;;;;;;;;;15.22;57.93;97186.31;5077849;28;19924;-74
2022/04/21 10:42:14;;;;;;;;;;;;;;;14.95;58.18;97182.69;5074698;28;19932;-72
2022/04/21 10:44:43;;;;;;;;;;;;;;;14.63;58.96;97174.94;5074391;28;19988;-73
2022/04/21 10:47:28;;;;;;;;;;;;;;;14.79;60.61;97176.09;5066138;28;19924;-72
2022/04/21 10:49:55;;;;;;;;;;;;;;;14.91;59.29;97167.50;5075682;28;19925;-73
2022/04/21 10:58:25;;;;;;;;;;;;;;;15.17;58.83;97168.41;5075953;28;19924;-73
2022/04/21 11:03:46;;;;;;;;;;;;;;;15.26;58.76;97157.66;5107638;27;19974;-63
2022/04/21 11:06:14;;;;;;;;;;;;;;;15.49;59.04;97160.00;5075385;27;19996;-63
2022/04/21 11:08:40;;;;;;;;;;;;;;;15.67;57.15;97144.69;5075574;27;19925;-64
2022/04/21 11:11:07;;;;;;;;;;;;;;;15.84;56.96;97147.44;5072337;27;19957;-63
2022/04/21 11:13:40;;;;;;;;;;;;;;;15.90;55.54;97138.09;5070374;28;19924;-62
2022/04/21 11:16:07;;;;;;;;;;;;;;;15.61;56.70;97140.56;5072013;28;19947;-64
2022/04/21 11:18:33;;;;;;;;;;;;;;;15.56;56.96;97128.06;5071526;28;19935;-63
2022/04/21 11:21:14;;;;;;;;;;;;;;;15.42;57.51;97131.94;5073670;28;19925;-63
2022/04/21 11:24:02;;;;;;;;;;;;;;;15.75;56.68;97137.75;5074831;27;19925;-63
2022/04/21 11:26:29;;;;;;;;;;;;;;;15.86;55.71;97126.34;5068944;28;19932;-62
2022/04/21 11:29:01;;;;;;;;;;;;;;;16.04;56.26;97130.63;5073061;28;20452;-63
2022/04/21 11:31:28;;;;;;;;;;;;;;;16.30;55.44;97129.84;5074641;28;19929;-64
2022/04/21 11:33:59;;;;;;;;;;;;;;;16.36;54.44;97133.97;5073359;28;19925;-63
2022/04/21 11:36:33;;;;;;;;;;;;;;;15.93;54.30;97126.69;5071507;28;19941;-63
2022/04/21 11:39:00;;;;;;;;;;;;;;;15.70;54.16;97130.59;5073517;28;19936;-63
2022/04/21 11:41:26;;;;;;;;;;;;;;;15.70;54.65;97133.28;5075073;27;19925;-63
2022/04/21 11:43:55;;;;;;;;;;;;;;;15.63;54.05;97127.56;5073429;27;19946;-64
2022/04/21 11:46:21;;;;;;;;;;;;;;;15.61;55.42;97125.22;5071311;28;19932;-64
2022/04/21 11:48:56;;;;;;;;;;;;;;;15.77;55.38;97117.47;5071638;28;19960;-63
2022/04/21 11:51:24;;;;;;;;;;;;;;;15.96;54.35;97120.66;5074839;27;19980;-63
2022/04/21 11:53:51;;;;;;;;;;;;;;;15.85;53.45;97114.00;5073556;27;20060;-63
2022/04/21 11:56:17;;;;;;;;;;;;;;;15.62;53.82;97116.03;5071147;28;20327;-63
2022/04/21 11:58:44;;;;;;;;;;;;;;;15.88;54.87;97118.75;5071119;28;19929;-63
2022/04/21 12:06:44;;;;;;;;;;;;;;;16.11;54.68;97100.53;5074368;28;19927;-61
2022/04/21 12:09:14;;;;;;;;;;;;;;;16.05;53.58;97104.50;5062796;28;19925;-63
2022/04/21 12:11:40;;;;;;;;;;;;;;;15.98;53.38;97101.47;5070745;28;19921;-63
2022/04/21 12:14:07;;;;;;;;;;;;;;;15.63;53.07;97097.97;5062977;28;19931;-63
2022/04/21 12:16:38;;;;;;;;;;;;;;;15.89;53.94;97096.09;5057359;28;19977;-63
2022/04/21 12:19:15;;;;;;;;;;;;;;;15.89;53.20;97098.00;5060433;28;19952;-63
2022/04/21 12:21:42;;;;;;;;;;;;;;;16.12;53.40;97099.44;5061022;28;19931;-63
2022/04/21 12:24:12;;;;;;;;;;;;;;;16.31;52.59;97094.47;5057313;28;19988;-64
2022/04/21 12:26:39;;;;;;;;;;;;;;;16.47;52.50;97097.47;5057157;28;19989;-63
2022/04/21 12:29:07;;;;;;;;;;;;;;;16.31;52.30;97086.41;5060176;28;19950;-62
2022/04/21 12:31:43;;;;;;;;;;;;;;;16.32;51.73;97090.69;5060968;28;20047;-64
2022/04/21 12:34:10;;;;;;;;;;;;;;;16.18;52.24;97101.63;5049247;28;19925;-63
2022/04/21 12:36:36;;;;;;;;;;;;;;;16.19;52.52;97092.44;5057229;28;19959;-65
2022/04/21 12:39:03;;;;;;;;;;;;;;;15.99;52.25;97092.31;5059702;28;19921;-63
2022/04/21 12:41:30;;;;;;;;;;;;;;;16.08;52.59;97091.19;5060632;28;20414;-63
2022/04/21 12:43:56;;;;;;;;;;;;;;;16.33;52.21;97091.47;5058581;28;19988;-62
2022/04/21 12:46:22;;;;;;;;;;;;;;;16.18;51.53;97084.69;5055832;28;19932;-63
2022/04/21 12:48:50;;;;;;;;;;;;;;;16.02;51.33;97081.69;5057504;28;19925;-62
2022/04/21 12:51:20;;;;;;;;;;;;;;;16.16;52.11;97082.31;5060335;28;19968;-62
2022/04/21 12:53:55;;;;;;;;;;;;;;;16.13;51.33;97082.94;5059813;28;19977;-62
2022/04/21 12:56:32;;;;;;;;;;;;;;;16.12;51.67;97070.56;5056959;28;19925;-62
2022/04/21 12:58:58;;;;;;;;;;;;;;;16.30;50.33;97081.34;5057369;28;19964;-63
2022/04/21 13:01:25;;;;;;;;;;;;;;;16.40;50.74;97081.78;5059723;28;19939;-62
2022/04/21 13:03:52;;;;;;;;;;;;;;;16.32;50.45;97065.63;5058902;28;19924;-63
2022/04/21 13:06:25;;;;;;;;;;;;;;;16.06;50.29;97071.84;5056674;28;19925;-63
2022/04/21 13:08:52;;;;;;;;;;;;;;;16.01;51.33;97060.47;5057298;28;19950;-63
2022/04/21 13:11:18;;;;;;;;;;;;;;;15.94;50.85;97060.13;5060092;28;19992;-62
2022/04/21 13:13:44;;;;;;;;;;;;;;;15.94;50.74;97066.31;5059780;28;19931;-64
2022/04/21 13:16:11;;;;;;;;;;;;;;;15.80;51.52;97063.00;5056381;28;20502;-63
2022/04/21 13:18:37;;;;;;;;;;;;;;;15.84;51.72;97061.28;5056228;28;19929;-63
2022/04/21 13:23:48;;;;;;;;;;;;;;;16.08;52.55;97064.25;5059132;28;19978;-63
2022/04/21 13:26:15;;;;;;;;;;;;;;;16.11;52.53;97060.13;5055207;28;19994;-64
2022/04/21 13:28:41;;;;;;;;;;;;;;;15.87;53.01;97062.53;5056258;28;19988;-62
2022/04/21 13:33:51;;;;;;;;;;;;;;;15.87;53.77;97070.63;5058397;28;19925;-64
2022/04/21 13:36:19;;;;;;;;;;;;;;;16.17;52.86;97070.44;5056231;28;19925;-62
2022/04/21 13:38:45;;;;;;;;;;;;;;;16.19;52.88;97064.72;5056188;28;19988;-63
2022/04/21 13:41:11;;;;;;;;;;;;;;;16.29;52.23;97066.28;5059287;28;19950;-63
2022/04/21 13:43:37;;;;;;;;;;;;;;;16.22;52.60;97068.69;5059537;28;19925;-64
2022/04/21 13:46:04;;;;;;;;;;;;;;;16.17;52.85;97062.34;5056842;28;19925;-62